Time;durP1;ratioP1;P1;durP2;ratioP2;P2;SDS_P1;SDS_P2;PMS_P1;PMS_P2;Temp;Humidity;BMP_temperature;BMP_pressure;BME280_temperature;BME280_humidity;BME280_pressure;Samples;Min_cycle;Max_cycle;Signal;HPM_P1;HPM_P2
2023/08/14 00:00:34;;;;;;;8.15;4.70;;;;;;;;;;4894396;29;20080;-61
2023/08/14 00:02:59;;;;;;;7.00;4.30;;;;;;;;;;4895088;29;20498;-59
2023/08/14 00:05:26;;;;;;;9.75;4.28;;;;;;;;;;4892360;29;20037;-60
2023/08/14 00:07:51;;;;;;;9.23;4.72;;;;;;;;;;4894088;29;20051;-59
2023/08/14 00:10:17;;;;;;;8.93;4.40;;;;;;;;;;4896376;29;20028;-60
2023/08/14 00:12:42;;;;;;;10.68;4.85;;;;;;;;;;4895698;29;20032;-60
2023/08/14 00:15:08;;;;;;;9.77;4.85;;;;;;;;;;4878006;29;20037;-60
2023/08/14 00:17:34;;;;;;;9.98;4.50;;;;;;;;;;4895603;29;20036;-60
2023/08/14 00:19:59;;;;;;;10.65;4.53;;;;;;;;;;4893474;29;20063;-59
2023/08/14 00:22:24;;;;;;;10.63;4.53;;;;;;;;;;4894497;29;20079;-59
2023/08/14 00:24:50;;;;;;;8.27;4.70;;;;;;;;;;4893361;29;20033;-59
2023/08/14 00:27:15;;;;;;;10.85;4.55;;;;;;;;;;4895721;29;20474;-59
2023/08/14 00:29:40;;;;;;;10.07;4.40;;;;;;;;;;4892841;29;20037;-59
2023/08/14 00:32:06;;;;;;;7.88;4.55;;;;;;;;;;4894587;29;20081;-59
2023/08/14 00:34:31;;;;;;;11.18;4.50;;;;;;;;;;4895205;29;20466;-60
2023/08/14 00:36:57;;;;;;;9.73;4.30;;;;;;;;;;4894627;29;20100;-59
2023/08/14 00:39:25;;;;;;;7.95;4.35;;;;;;;;;;4893299;29;20032;-59
2023/08/14 00:41:50;;;;;;;9.95;4.63;;;;;;;;;;4877707;29;20033;-60
2023/08/14 00:44:15;;;;;;;8.55;4.68;;;;;;;;;;4893540;29;20084;-60
2023/08/14 00:46:41;;;;;;;11.20;4.70;;;;;;;;;;4893854;29;20505;-60
2023/08/14 00:49:07;;;;;;;11.75;4.70;;;;;;;;;;4892422;29;20032;-59
2023/08/14 00:51:34;;;;;;;10.57;4.88;;;;;;;;;;4895245;29;20032;-59
2023/08/14 00:54:00;;;;;;;10.80;4.80;;;;;;;;;;4894851;29;20043;-59
2023/08/14 00:56:28;;;;;;;9.52;5.00;;;;;;;;;;4895677;29;20389;-59
2023/08/14 00:58:53;;;;;;;8.75;4.70;;;;;;;;;;4912397;29;20048;-59
2023/08/14 01:01:19;;;;;;;10.70;4.88;;;;;;;;;;4912324;29;20032;-59
2023/08/14 01:03:44;;;;;;;8.95;4.50;;;;;;;;;;4912652;29;20449;-60
2023/08/14 01:06:09;;;;;;;9.55;4.35;;;;;;;;;;4897172;29;20047;-59
2023/08/14 01:08:35;;;;;;;11.38;5.20;;;;;;;;;;4913572;29;20511;-60
2023/08/14 01:11:07;;;;;;;11.13;4.68;;;;;;;;;;4894693;29;20056;-59
2023/08/14 01:13:51;;;;;;;6.32;4.30;;;;;;;;;;4916685;29;20028;-60
2023/08/14 01:16:31;;;;;;;8.88;4.50;;;;;;;;;;4918307;29;20484;-59
2023/08/14 01:18:58;;;;;;;10.98;4.85;;;;;;;;;;4916719;29;20172;-61
2023/08/14 01:21:45;;;;;;;9.63;4.60;;;;;;;;;;4912529;29;20421;-60
2023/08/14 01:24:24;;;;;;;8.20;4.95;;;;;;;;;;4899159;29;20060;-60
2023/08/14 01:26:51;;;;;;;7.45;4.50;;;;;;;;;;4916476;29;20578;-60
2023/08/14 01:29:17;;;;;;;11.32;4.70;;;;;;;;;;4914154;29;20179;-60
2023/08/14 01:31:42;;;;;;;8.85;4.65;;;;;;;;;;4916730;29;20123;-60
2023/08/14 01:34:08;;;;;;;7.18;4.78;;;;;;;;;;4917283;29;20031;-60
2023/08/14 01:36:38;;;;;;;8.52;5.20;;;;;;;;;;4916044;29;20060;-59
2023/08/14 01:39:09;;;;;;;11.07;4.90;;;;;;;;;;4897893;29;20139;-59
2023/08/14 01:42:05;;;;;;;10.13;5.10;;;;;;;;;;4902479;29;20064;-59
2023/08/14 01:44:32;;;;;;;9.15;5.18;;;;;;;;;;4916968;29;20062;-59
2023/08/14 01:47:00;;;;;;;10.70;5.72;;;;;;;;;;4914434;29;20194;-59
2023/08/14 01:49:29;;;;;;;10.45;5.70;;;;;;;;;;4914500;29;20057;-59
2023/08/14 01:51:55;;;;;;;14.07;5.80;;;;;;;;;;4915592;29;20036;-59
2023/08/14 01:54:20;;;;;;;10.23;5.55;;;;;;;;;;4899902;29;20043;-59
2023/08/14 01:56:46;;;;;;;10.27;5.70;;;;;;;;;;4913328;29;20106;-58
2023/08/14 01:59:11;;;;;;;10.10;5.72;;;;;;;;;;4895879;29;20052;-59
2023/08/14 02:01:37;;;;;;;13.30;6.13;;;;;;;;;;4903615;29;20028;-59
2023/08/14 02:04:02;;;;;;;12.32;5.75;;;;;;;;;;4895913;29;20044;-59
2023/08/14 02:06:28;;;;;;;10.40;6.15;;;;;;;;;;4897246;29;20035;-59
2023/08/14 02:08:53;;;;;;;9.90;6.00;;;;;;;;;;4889248;29;20518;-60
2023/08/14 02:11:18;;;;;;;11.35;6.25;;;;;;;;;;4897527;29;20052;-59
2023/08/14 02:13:44;;;;;;;9.70;6.15;;;;;;;;;;4896601;29;20041;-60
2023/08/14 02:16:09;;;;;;;10.90;5.80;;;;;;;;;;4897022;29;20037;-59
2023/08/14 02:18:35;;;;;;;10.60;5.88;;;;;;;;;;4896659;29;20059;-59
2023/08/14 02:21:00;;;;;;;9.68;6.03;;;;;;;;;;4894143;29;20036;-59
2023/08/14 02:23:25;;;;;;;11.13;6.05;;;;;;;;;;4896355;29;20459;-59
2023/08/14 02:25:55;;;;;;;11.35;6.07;;;;;;;;;;4888280;29;20040;-60
2023/08/14 02:28:20;;;;;;;12.48;6.35;;;;;;;;;;4894840;29;20508;-59
2023/08/14 02:30:46;;;;;;;10.57;5.97;;;;;;;;;;4896937;29;20024;-59
2023/08/14 02:33:12;;;;;;;11.48;6.57;;;;;;;;;;4896420;29;20036;-59
2023/08/14 02:35:37;;;;;;;11.55;6.50;;;;;;;;;;4895868;29;20474;-59
2023/08/14 02:38:06;;;;;;;11.85;6.57;;;;;;;;;;4895595;29;20080;-60
2023/08/14 02:40:32;;;;;;;15.10;6.40;;;;;;;;;;4896875;29;20033;-59
2023/08/14 02:43:02;;;;;;;11.65;6.75;;;;;;;;;;4895287;29;20107;-59
2023/08/14 02:45:28;;;;;;;15.35;6.40;;;;;;;;;;4896134;29;20025;-59
2023/08/14 02:47:53;;;;;;;14.68;6.93;;;;;;;;;;4896191;29;20056;-59
2023/08/14 02:50:21;;;;;;;16.55;7.38;;;;;;;;;;4893890;29;20052;-60
2023/08/14 02:52:50;;;;;;;10.27;6.63;;;;;;;;;;4895162;29;20478;-59
2023/08/14 02:55:15;;;;;;;15.63;6.80;;;;;;;;;;4895139;29;20032;-59
2023/08/14 02:57:40;;;;;;;15.40;7.22;;;;;;;;;;4884207;29;20227;-59
2023/08/14 03:00:07;;;;;;;13.48;6.68;;;;;;;;;;4896491;29;20116;-59
2023/08/14 03:02:34;;;;;;;13.07;7.07;;;;;;;;;;4896174;29;20040;-59
2023/08/14 03:04:59;;;;;;;12.43;6.50;;;;;;;;;;4894206;29;20028;-59
2023/08/14 03:07:25;;;;;;;13.43;7.20;;;;;;;;;;4895421;29;20439;-59
2023/08/14 03:09:50;;;;;;;14.70;6.60;;;;;;;;;;4894516;29;20052;-61
2023/08/14 03:12:17;;;;;;;11.93;6.78;;;;;;;;;;4897475;29;20051;-59
2023/08/14 03:14:42;;;;;;;14.52;6.93;;;;;;;;;;4892892;29;20389;-61
2023/08/14 03:17:08;;;;;;;16.00;7.25;;;;;;;;;;4895751;29;20043;-60
2023/08/14 03:19:33;;;;;;;15.60;7.60;;;;;;;;;;4894529;29;20413;-60
2023/08/14 03:21:58;;;;;;;13.13;6.60;;;;;;;;;;4893673;29;20048;-59
2023/08/14 03:24:24;;;;;;;12.88;7.40;;;;;;;;;;4895865;29;20049;-59
2023/08/14 03:26:52;;;;;;;17.08;7.47;;;;;;;;;;4894370;29;20464;-60
2023/08/14 03:29:17;;;;;;;12.25;7.00;;;;;;;;;;4895993;29;20041;-59
2023/08/14 03:31:42;;;;;;;17.02;7.63;;;;;;;;;;4895215;29;20033;-60
2023/08/14 03:34:10;;;;;;;12.75;6.80;;;;;;;;;;4897355;29;20068;-59
2023/08/14 03:36:36;;;;;;;13.38;7.50;;;;;;;;;;4880736;29;20056;-59
2023/08/14 03:39:02;;;;;;;14.77;7.50;;;;;;;;;;4885669;29;20661;-59
2023/08/14 03:41:27;;;;;;;12.57;6.68;;;;;;;;;;4896890;29;20474;-59
2023/08/14 03:43:53;;;;;;;12.98;6.75;;;;;;;;;;4894929;29;20047;-59
2023/08/14 03:46:18;;;;;;;12.02;6.30;;;;;;;;;;4892490;29;20040;-59
2023/08/14 03:48:43;;;;;;;11.13;6.05;;;;;;;;;;4895825;29;20037;-59
2023/08/14 03:51:09;;;;;;;15.30;6.80;;;;;;;;;;4894014;29;20044;-59
2023/08/14 03:53:35;;;;;;;15.70;6.78;;;;;;;;;;4894983;29;20033;-59
2023/08/14 03:56:00;;;;;;;15.15;6.50;;;;;;;;;;4893005;29;20095;-59
2023/08/14 03:58:25;;;;;;;10.85;6.68;;;;;;;;;;4907875;29;20079;-59
2023/08/14 04:00:51;;;;;;;12.38;6.65;;;;;;;;;;4900750;29;20169;-60
2023/08/14 04:03:16;;;;;;;14.02;6.97;;;;;;;;;;4878347;29;20033;-59
2023/08/14 04:05:42;;;;;;;12.23;6.85;;;;;;;;;;4886825;29;20472;-59
2023/08/14 04:08:07;;;;;;;16.05;6.43;;;;;;;;;;4909685;29;20049;-59
2023/08/14 04:10:37;;;;;;;12.35;6.05;;;;;;;;;;4890942;29;20160;-59
2023/08/14 04:13:02;;;;;;;14.48;7.15;;;;;;;;;;4894473;29;20044;-59
2023/08/14 04:15:31;;;;;;;12.13;6.63;;;;;;;;;;4910376;29;20544;-59
2023/08/14 04:17:57;;;;;;;16.25;7.47;;;;;;;;;;4912321;29;20406;-60
2023/08/14 04:20:22;;;;;;;13.93;6.18;;;;;;;;;;4909270;29;20051;-59
2023/08/14 04:22:47;;;;;;;13.63;6.38;;;;;;;;;;4908756;29;20043;-60
2023/08/14 04:25:13;;;;;;;13.60;6.30;;;;;;;;;;4910796;29;20032;-59
2023/08/14 04:27:38;;;;;;;13.73;6.88;;;;;;;;;;4912142;29;20036;-59
2023/08/14 04:30:05;;;;;;;12.48;7.18;;;;;;;;;;4888869;29;20539;-59
2023/08/14 04:32:31;;;;;;;11.40;6.38;;;;;;;;;;4910571;29;20115;-59
2023/08/14 04:34:56;;;;;;;12.05;6.47;;;;;;;;;;4901379;29;20120;-60
2023/08/14 04:37:22;;;;;;;12.30;6.40;;;;;;;;;;4879986;29;20036;-59
2023/08/14 04:39:47;;;;;;;13.20;6.75;;;;;;;;;;4894416;29;20123;-60
2023/08/14 04:42:13;;;;;;;16.23;7.07;;;;;;;;;;4896784;29;20486;-59
2023/08/14 04:44:38;;;;;;;14.68;6.50;;;;;;;;;;4897157;29;20033;-60
2023/08/14 04:47:03;;;;;;;13.95;6.82;;;;;;;;;;4898976;29;20037;-59
2023/08/14 04:49:29;;;;;;;13.45;6.75;;;;;;;;;;4903023;29;20033;-59
2023/08/14 04:51:54;;;;;;;12.07;6.97;;;;;;;;;;4883940;29;20048;-59
2023/08/14 04:54:20;;;;;;;13.68;6.75;;;;;;;;;;4900878;29;20036;-59
2023/08/14 04:56:45;;;;;;;12.45;7.07;;;;;;;;;;4899891;29;20025;-60
2023/08/14 04:59:11;;;;;;;15.88;7.72;;;;;;;;;;4899254;29;20149;-59
2023/08/14 05:01:36;;;;;;;13.70;7.25;;;;;;;;;;4898407;29;20480;-59
2023/08/14 05:04:03;;;;;;;18.00;7.32;;;;;;;;;;4899308;29;20033;-59
2023/08/14 05:06:28;;;;;;;16.70;6.85;;;;;;;;;;4899566;29;20112;-59
2023/08/14 05:08:53;;;;;;;16.13;7.55;;;;;;;;;;4877711;29;20054;-59
2023/08/14 05:11:19;;;;;;;14.75;6.93;;;;;;;;;;4891403;29;20131;-59
2023/08/14 05:13:44;;;;;;;14.73;7.45;;;;;;;;;;4899716;29;20035;-59
2023/08/14 05:16:10;;;;;;;13.23;6.85;;;;;;;;;;4898119;29;20619;-59
2023/08/14 05:18:35;;;;;;;12.82;6.70;;;;;;;;;;4897611;29;20036;-64
2023/08/14 05:21:01;;;;;;;15.00;7.10;;;;;;;;;;4895251;29;20573;-66
2023/08/14 05:23:26;;;;;;;14.00;7.28;;;;;;;;;;4898354;29;20032;-65
2023/08/14 05:25:52;;;;;;;13.25;7.20;;;;;;;;;;4896641;29;20474;-68
2023/08/14 05:28:17;;;;;;;14.68;7.28;;;;;;;;;;4898767;29;20084;-63
2023/08/14 05:30:45;;;;;;;11.43;7.15;;;;;;;;;;4881492;29;20060;-64
2023/08/14 05:33:10;;;;;;;15.82;7.78;;;;;;;;;;4903106;29;20324;-67
2023/08/14 05:35:36;;;;;;;10.68;7.13;;;;;;;;;;4917965;29;20470;-67
2023/08/14 05:38:01;;;;;;;14.55;7.82;;;;;;;;;;4909258;29;20032;-67
2023/08/14 05:40:27;;;;;;;14.07;7.63;;;;;;;;;;4897880;29;20079;-66
2023/08/14 05:43:12;;;;;;;13.73;7.82;;;;;;;;;;4897126;29;20044;-68
2023/08/14 05:45:41;;;;;;;15.63;7.50;;;;;;;;;;4897250;29;20040;-66
2023/08/14 05:48:07;;;;;;;19.40;7.90;;;;;;;;;;4895969;29;20478;-66
2023/08/14 05:50:33;;;;;;;15.70;7.15;;;;;;;;;;4898040;29;20102;-65
2023/08/14 05:53:04;;;;;;;14.38;7.30;;;;;;;;;;4880617;29;20430;-67
2023/08/14 05:55:31;;;;;;;13.45;7.05;;;;;;;;;;4901420;29;20048;-67
2023/08/14 05:57:56;;;;;;;15.77;6.97;;;;;;;;;;4896053;29;20052;-67
2023/08/14 06:00:22;;;;;;;14.00;6.82;;;;;;;;;;4895138;29;20037;-67
2023/08/14 06:02:47;;;;;;;13.15;6.20;;;;;;;;;;4898783;29;20029;-67
2023/08/14 06:05:12;;;;;;;14.60;6.30;;;;;;;;;;4897368;29;20224;-66
2023/08/14 06:07:38;;;;;;;15.65;6.22;;;;;;;;;;4898641;29;20037;-66
2023/08/14 06:10:05;;;;;;;12.20;6.40;;;;;;;;;;4896204;29;20033;-67
2023/08/14 06:12:31;;;;;;;13.13;5.72;;;;;;;;;;4897876;29;20036;-66
2023/08/14 06:14:57;;;;;;;14.27;6.05;;;;;;;;;;4899021;29;20079;-68
2023/08/14 06:17:22;;;;;;;13.93;5.95;;;;;;;;;;4902986;29;20101;-67
2023/08/14 06:19:48;;;;;;;17.13;5.70;;;;;;;;;;4894934;29;20044;-66
2023/08/14 06:22:13;;;;;;;13.23;5.70;;;;;;;;;;4894947;29;20033;-69
2023/08/14 06:24:38;;;;;;;12.73;5.22;;;;;;;;;;4896508;29;20044;-68
2023/08/14 06:27:04;;;;;;;10.60;5.53;;;;;;;;;;4896239;29;20033;-66
2023/08/14 06:29:33;;;;;;;8.57;5.25;;;;;;;;;;4879299;29;20037;-66
2023/08/14 06:31:58;;;;;;;12.55;4.97;;;;;;;;;;4897336;29;20036;-61
2023/08/14 06:34:24;;;;;;;10.30;5.00;;;;;;;;;;4898722;29;20029;-67
2023/08/14 06:36:49;;;;;;;11.95;4.60;;;;;;;;;;4895827;29;20470;-67
2023/08/14 06:39:18;;;;;;;11.07;4.68;;;;;;;;;;4897374;29;20032;-66
2023/08/14 06:41:43;;;;;;;11.73;4.22;;;;;;;;;;4898191;29;20032;-68
2023/08/14 06:44:09;;;;;;;10.38;4.50;;;;;;;;;;4897247;29;20564;-66
2023/08/14 06:46:35;;;;;;;9.10;4.25;;;;;;;;;;4898010;29;20060;-67
2023/08/14 06:49:00;;;;;;;10.15;4.70;;;;;;;;;;4896511;29;20128;-64
2023/08/14 06:51:26;;;;;;;11.65;4.50;;;;;;;;;;4880708;29;20456;-64
2023/08/14 06:53:51;;;;;;;11.25;4.43;;;;;;;;;;4897304;29;20028;-66
2023/08/14 06:56:17;;;;;;;15.95;4.43;;;;;;;;;;4897163;29;20471;-64
2023/08/14 06:58:42;;;;;;;10.60;4.10;;;;;;;;;;4894466;29;20059;-64
2023/08/14 07:01:08;;;;;;;10.55;4.38;;;;;;;;;;4878735;29;20035;-65
2023/08/14 07:03:33;;;;;;;10.73;3.90;;;;;;;;;;4896312;29;20037;-62
2023/08/14 07:05:58;;;;;;;12.00;4.32;;;;;;;;;;4893512;29;20037;-64
2023/08/14 07:08:24;;;;;;;10.55;4.55;;;;;;;;;;4896991;29;20029;-65
2023/08/14 07:10:49;;;;;;;13.68;4.30;;;;;;;;;;4878295;29;20075;-65
2023/08/14 07:13:15;;;;;;;13.52;4.75;;;;;;;;;;4894620;29;20061;-63
2023/08/14 07:15:40;;;;;;;11.25;4.45;;;;;;;;;;4894419;29;20438;-63
2023/08/14 07:18:06;;;;;;;9.00;4.20;;;;;;;;;;4894096;29;20028;-65
2023/08/14 07:20:32;;;;;;;11.38;4.00;;;;;;;;;;4896795;29;20497;-65
2023/08/14 07:23:00;;;;;;;7.97;3.80;;;;;;;;;;4875800;29;20055;-66
2023/08/14 07:25:26;;;;;;;9.98;3.90;;;;;;;;;;4897191;29;20039;-65
2023/08/14 07:27:52;;;;;;;13.80;4.53;;;;;;;;;;4890790;29;20509;-65
2023/08/14 07:30:17;;;;;;;9.82;3.85;;;;;;;;;;4896155;29;20132;-65
2023/08/14 07:32:42;;;;;;;7.72;3.40;;;;;;;;;;4878715;29;20040;-65
2023/08/14 07:35:08;;;;;;;11.57;3.85;;;;;;;;;;4894476;29;20119;-65
2023/08/14 07:37:33;;;;;;;8.65;3.70;;;;;;;;;;4895125;29;20458;-66
2023/08/14 07:39:59;;;;;;;12.73;3.85;;;;;;;;;;4892514;29;20765;-64
2023/08/14 07:42:24;;;;;;;10.48;3.25;;;;;;;;;;4894015;29;20071;-65
2023/08/14 07:44:50;;;;;;;8.63;3.45;;;;;;;;;;4895576;29;20041;-67
2023/08/14 07:47:15;;;;;;;9.57;3.30;;;;;;;;;;4896035;29;20032;-65
2023/08/14 07:49:41;;;;;;;9.82;3.30;;;;;;;;;;4896123;29;20040;-65
2023/08/14 07:52:06;;;;;;;10.82;3.50;;;;;;;;;;4892740;29;20068;-65
2023/08/14 07:54:32;;;;;;;9.23;3.45;;;;;;;;;;4896735;29;20040;-64
2023/08/14 07:56:57;;;;;;;8.35;3.38;;;;;;;;;;4893430;29;20086;-64
2023/08/14 07:59:23;;;;;;;7.55;3.85;;;;;;;;;;4894448;29;20037;-62
2023/08/14 08:01:48;;;;;;;9.35;3.53;;;;;;;;;;4895095;29;20073;-64
2023/08/14 08:04:14;;;;;;;7.05;3.17;;;;;;;;;;4895997;29;20052;-64
2023/08/14 08:06:42;;;;;;;9.00;3.28;;;;;;;;;;4895172;29;20116;-65
2023/08/14 08:09:07;;;;;;;7.88;3.35;;;;;;;;;;4894426;29;20036;-65
2023/08/14 08:11:33;;;;;;;10.68;3.60;;;;;;;;;;4893014;29;20029;-66
2023/08/14 08:13:59;;;;;;;8.48;3.30;;;;;;;;;;4894852;29;20064;-67
2023/08/14 08:16:24;;;;;;;8.43;3.50;;;;;;;;;;4895220;29;20029;-66
2023/08/14 08:18:50;;;;;;;7.15;3.15;;;;;;;;;;4877100;29;20075;-66
2023/08/14 08:21:15;;;;;;;10.30;3.25;;;;;;;;;;4892021;29;20032;-63
2023/08/14 08:23:41;;;;;;;11.77;3.65;;;;;;;;;;4898098;29;20088;-65
2023/08/14 08:26:06;;;;;;;14.43;3.80;;;;;;;;;;4885653;29;20035;-66
2023/08/14 08:28:31;;;;;;;16.42;3.13;;;;;;;;;;4899576;29;20088;-64
2023/08/14 08:30:57;;;;;;;11.30;3.50;;;;;;;;;;4905199;29;20071;-65
2023/08/14 08:33:22;;;;;;;9.43;3.30;;;;;;;;;;4900522;29;20036;-65
2023/08/14 08:35:47;;;;;;;7.05;3.10;;;;;;;;;;4900340;29;20037;-65
2023/08/14 08:38:13;;;;;;;8.82;3.65;;;;;;;;;;4898901;29;20037;-65
2023/08/14 08:40:40;;;;;;;8.07;3.30;;;;;;;;;;4900033;29;20068;-65
2023/08/14 08:43:06;;;;;;;11.23;3.58;;;;;;;;;;4899215;29;20028;-63
2023/08/14 08:45:34;;;;;;;10.23;3.20;;;;;;;;;;4900054;29;20039;-64
2023/08/14 08:48:02;;;;;;;11.20;3.53;;;;;;;;;;4899463;29;20056;-62
2023/08/14 08:50:31;;;;;;;11.48;3.53;;;;;;;;;;4898824;29;20091;-67
2023/08/14 08:52:57;;;;;;;9.20;3.45;;;;;;;;;;4898331;29;20041;-65
2023/08/14 08:55:23;;;;;;;9.52;3.50;;;;;;;;;;4899358;29;20044;-64
2023/08/14 08:57:48;;;;;;;12.13;3.60;;;;;;;;;;4899027;29;20441;-63
2023/08/14 09:00:14;;;;;;;9.77;3.58;;;;;;;;;;4895831;29;20042;-65
2023/08/14 09:02:41;;;;;;;10.15;3.72;;;;;;;;;;4881174;29;20040;-65
2023/08/14 09:05:07;;;;;;;7.65;3.30;;;;;;;;;;4879791;29;20483;-65
2023/08/14 09:07:33;;;;;;;8.63;3.25;;;;;;;;;;4899349;29;20132;-64
2023/08/14 09:10:00;;;;;;;13.43;3.20;;;;;;;;;;4895497;29;20398;-66
2023/08/14 09:12:25;;;;;;;9.30;3.08;;;;;;;;;;4897870;29;20058;-65
2023/08/14 09:15:04;;;;;;;10.50;3.40;;;;;;;;;;4898680;29;20477;-68
2023/08/14 09:17:30;;;;;;;8.00;3.20;;;;;;;;;;4898384;29;20115;-64
2023/08/14 09:19:55;;;;;;;6.35;3.25;;;;;;;;;;4897633;29;20586;-66
2023/08/14 09:22:20;;;;;;;10.85;3.33;;;;;;;;;;4897659;29;20043;-66
2023/08/14 09:24:48;;;;;;;7.72;3.17;;;;;;;;;;4898270;29;20040;-66
2023/08/14 09:27:13;;;;;;;14.75;3.85;;;;;;;;;;4896885;29;20122;-64
2023/08/14 09:29:39;;;;;;;12.32;3.65;;;;;;;;;;4898516;29;20393;-65
2023/08/14 09:32:04;;;;;;;10.13;3.40;;;;;;;;;;4894827;29;20502;-62
2023/08/14 09:34:30;;;;;;;11.20;3.25;;;;;;;;;;4880972;29;20040;-64
2023/08/14 09:36:57;;;;;;;8.57;2.90;;;;;;;;;;4896033;29;20047;-65
2023/08/14 09:39:23;;;;;;;10.18;2.90;;;;;;;;;;4897784;29;20036;-65
2023/08/14 09:41:49;;;;;;;7.97;2.42;;;;;;;;;;4898469;29;20096;-65
2023/08/14 09:44:18;;;;;;;4.57;2.33;;;;;;;;;;4897113;29;20036;-63
2023/08/14 09:46:43;;;;;;;7.07;2.50;;;;;;;;;;4897676;29;20029;-66
2023/08/14 09:49:09;;;;;;;6.35;2.60;;;;;;;;;;4897542;29;20029;-68
2023/08/14 09:51:35;;;;;;;8.35;2.95;;;;;;;;;;4893972;29;20993;-64
2023/08/14 09:54:02;;;;;;;6.90;2.70;;;;;;;;;;4880553;29;20043;-70
2023/08/14 09:56:28;;;;;;;4.95;2.40;;;;;;;;;;4897942;29;20083;-66
2023/08/14 09:58:54;;;;;;;7.15;2.60;;;;;;;;;;4893889;29;20502;-71
2023/08/14 10:01:22;;;;;;;7.20;2.53;;;;;;;;;;4898224;29;20041;-66
2023/08/14 10:03:52;;;;;;;5.72;2.33;;;;;;;;;;4897281;29;20044;-66
2023/08/14 10:06:18;;;;;;;6.88;2.60;;;;;;;;;;4898109;29;20124;-66
2023/08/14 10:08:44;;;;;;;7.40;2.30;;;;;;;;;;4895820;29;20509;-63
2023/08/14 10:11:15;;;;;;;4.90;2.20;;;;;;;;;;4896373;29;20041;-65
2023/08/14 10:13:52;;;;;;;6.97;2.30;;;;;;;;;;4897489;29;20037;-65
2023/08/14 10:16:23;;;;;;;6.03;2.30;;;;;;;;;;4896727;29;20033;-63
2023/08/14 10:18:52;;;;;;;6.13;2.33;;;;;;;;;;4897012;29;20044;-62
2023/08/14 10:21:17;;;;;;;7.07;2.28;;;;;;;;;;4896697;29;20032;-62
2023/08/14 10:23:44;;;;;;;7.53;2.33;;;;;;;;;;4893385;29;20403;-69
2023/08/14 10:26:10;;;;;;;6.35;2.28;;;;;;;;;;4893937;29;20772;-69
2023/08/14 10:28:36;;;;;;;6.65;2.25;;;;;;;;;;4903669;29;20048;-65
2023/08/14 10:31:02;;;;;;;5.72;2.20;;;;;;;;;;4897288;29;20040;-69
2023/08/14 10:33:28;;;;;;;6.82;2.42;;;;;;;;;;4896095;29;20087;-63
2023/08/14 10:35:55;;;;;;;6.32;2.40;;;;;;;;;;4895378;29;20112;-66
2023/08/14 10:38:24;;;;;;;6.38;2.40;;;;;;;;;;4897389;29;20553;-63
2023/08/14 10:40:55;;;;;;;4.90;2.08;;;;;;;;;;4896949;29;20063;-63
2023/08/14 10:43:27;;;;;;;6.50;2.10;;;;;;;;;;4896931;29;20039;-63
2023/08/14 10:45:53;;;;;;;4.60;2.45;;;;;;;;;;4894046;29;20048;-66
2023/08/14 10:48:21;;;;;;;4.97;2.38;;;;;;;;;;4879162;29;20033;-63
2023/08/14 10:50:49;;;;;;;6.30;2.20;;;;;;;;;;4883778;29;20088;-63
2023/08/14 10:53:15;;;;;;;6.93;2.40;;;;;;;;;;4896934;29;20169;-63
2023/08/14 10:55:45;;;;;;;6.72;2.30;;;;;;;;;;4897548;29;20064;-63
2023/08/14 10:58:31;;;;;;;4.90;2.22;;;;;;;;;;4896244;29;20167;-66
2023/08/14 11:01:00;;;;;;;4.93;2.20;;;;;;;;;;4888432;29;20376;-67
2023/08/14 11:03:26;;;;;;;5.65;2.38;;;;;;;;;;4896827;29;20088;-67
2023/08/14 11:05:51;;;;;;;5.88;2.30;;;;;;;;;;4894129;29;20115;-72
2023/08/14 11:08:17;;;;;;;6.72;2.40;;;;;;;;;;4895008;29;20059;-67
2023/08/14 11:10:44;;;;;;;7.10;2.45;;;;;;;;;;4893606;29;20033;-68
2023/08/14 11:13:10;;;;;;;5.60;2.30;;;;;;;;;;4877906;29;20124;-66
2023/08/14 11:15:37;;;;;;;6.88;2.45;;;;;;;;;;4887427;29;20036;-67
2023/08/14 11:18:10;;;;;;;5.32;2.15;;;;;;;;;;4894580;29;20096;-67
2023/08/14 11:20:42;;;;;;;7.32;2.33;;;;;;;;;;4893448;29;20040;-65
2023/08/14 11:23:08;;;;;;;6.18;2.58;;;;;;;;;;4897130;29;20072;-66
2023/08/14 11:25:35;;;;;;;8.68;2.50;;;;;;;;;;4905875;29;20512;-66
2023/08/14 11:28:00;;;;;;;8.70;2.22;;;;;;;;;;4876465;29;20128;-66
2023/08/14 11:30:31;;;;;;;6.63;2.38;;;;;;;;;;4892928;29;20522;-68
2023/08/14 11:32:57;;;;;;;4.70;2.30;;;;;;;;;;4894892;29;20033;-67
2023/08/14 11:35:25;;;;;;;7.25;2.40;;;;;;;;;;4896082;29;20394;-68
2023/08/14 11:37:50;;;;;;;6.13;2.30;;;;;;;;;;4900870;29;20032;-69
2023/08/14 11:40:15;;;;;;;4.85;2.40;;;;;;;;;;4897197;29;20043;-67
2023/08/14 11:42:42;;;;;;;6.00;2.38;;;;;;;;;;4895089;29;20033;-69
2023/08/14 11:45:08;;;;;;;7.05;2.40;;;;;;;;;;4891658;29;20119;-68
2023/08/14 11:47:47;;;;;;;7.60;2.28;;;;;;;;;;4895236;29;20095;-68
2023/08/14 11:50:14;;;;;;;4.90;2.22;;;;;;;;;;4898490;29;20055;-66
2023/08/14 11:52:40;;;;;;;8.88;2.50;;;;;;;;;;4902092;29;20043;-66
2023/08/14 11:55:06;;;;;;;6.70;2.40;;;;;;;;;;4892284;29;20036;-66
2023/08/14 11:57:33;;;;;;;5.25;2.05;;;;;;;;;;4902959;29;20068;-67
2023/08/14 12:00:00;;;;;;;5.38;2.20;;;;;;;;;;4894358;29;20081;-66
2023/08/14 12:02:28;;;;;;;5.05;2.13;;;;;;;;;;4879225;29;20037;-68
2023/08/14 12:04:54;;;;;;;5.88;2.30;;;;;;;;;;4895537;29;20036;-71
2023/08/14 12:07:21;;;;;;;7.40;2.30;;;;;;;;;;4900229;29;20039;-66
2023/08/14 12:09:48;;;;;;;5.82;2.20;;;;;;;;;;4892740;29;20156;-68
2023/08/14 12:12:14;;;;;;;5.32;2.33;;;;;;;;;;4900719;29;20648;-68
2023/08/14 12:14:41;;;;;;;5.47;1.98;;;;;;;;;;4891542;29;20040;-68
2023/08/14 12:17:11;;;;;;;4.93;2.22;;;;;;;;;;4892019;29;20029;-69
2023/08/14 12:19:39;;;;;;;5.60;2.30;;;;;;;;;;4893392;29;20071;-66
2023/08/14 12:22:08;;;;;;;9.30;2.30;;;;;;;;;;4896294;29;20044;-67
2023/08/14 12:24:41;;;;;;;6.35;2.38;;;;;;;;;;4896566;29;20045;-67
2023/08/14 12:27:14;;;;;;;7.50;2.15;;;;;;;;;;4902654;29;20453;-68
2023/08/14 12:29:43;;;;;;;8.05;2.22;;;;;;;;;;4900393;29;20069;-63
2023/08/14 12:32:09;;;;;;;5.70;2.40;;;;;;;;;;4895848;29;20068;-70
2023/08/14 12:34:34;;;;;;;6.28;2.30;;;;;;;;;;4897452;29;20084;-64
2023/08/14 12:37:00;;;;;;;4.85;2.40;;;;;;;;;;4895743;29;20044;-62
2023/08/14 12:39:25;;;;;;;5.40;2.60;;;;;;;;;;4898619;29;20077;-65
2023/08/14 12:41:55;;;;;;;7.30;2.40;;;;;;;;;;4897836;29;20089;-64
2023/08/14 12:44:21;;;;;;;5.43;2.50;;;;;;;;;;4904121;29;20064;-65
2023/08/14 12:46:46;;;;;;;6.28;2.30;;;;;;;;;;4898685;29;20040;-62
2023/08/14 12:49:11;;;;;;;4.65;2.30;;;;;;;;;;4896163;29;20481;-64
2023/08/14 12:51:41;;;;;;;6.78;2.60;;;;;;;;;;4897567;29;20068;-67
2023/08/14 12:54:06;;;;;;;7.47;2.67;;;;;;;;;;4895787;29;20466;-66
2023/08/14 12:56:32;;;;;;;4.68;2.38;;;;;;;;;;4896716;29;20274;-67
2023/08/14 12:58:58;;;;;;;5.25;2.40;;;;;;;;;;4894728;29;20104;-67
2023/08/14 13:01:23;;;;;;;6.68;2.42;;;;;;;;;;4896470;29;20091;-66
2023/08/14 13:03:48;;;;;;;6.25;2.25;;;;;;;;;;4896377;29;20127;-65
2023/08/14 13:06:14;;;;;;;8.45;2.70;;;;;;;;;;4895622;29;20071;-68
2023/08/14 13:08:40;;;;;;;5.50;2.60;;;;;;;;;;4897871;29;20043;-67
2023/08/14 13:11:06;;;;;;;5.05;2.40;;;;;;;;;;4904477;29;20080;-66
2023/08/14 13:13:32;;;;;;;6.47;2.30;;;;;;;;;;4909242;29;20041;-65
2023/08/14 13:15:58;;;;;;;5.97;2.33;;;;;;;;;;4898529;29;20040;-67
2023/08/14 13:18:23;;;;;;;6.70;2.60;;;;;;;;;;4894776;29;20075;-67
2023/08/14 13:20:50;;;;;;;7.55;2.75;;;;;;;;;;4899151;29;20462;-66
2023/08/14 13:23:16;;;;;;;6.68;2.75;;;;;;;;;;4899420;29;20530;-65
2023/08/14 13:25:41;;;;;;;5.65;2.67;;;;;;;;;;4902541;29;20093;-67
2023/08/14 13:28:07;;;;;;;6.78;2.63;;;;;;;;;;4896479;29;20169;-66
2023/08/14 13:30:32;;;;;;;5.55;2.70;;;;;;;;;;4899612;29;20111;-67
2023/08/14 13:32:58;;;;;;;7.28;2.58;;;;;;;;;;4898634;29;20180;-66
2023/08/14 13:35:23;;;;;;;7.85;2.75;;;;;;;;;;4899235;29;20057;-65
2023/08/14 13:37:49;;;;;;;5.63;2.17;;;;;;;;;;4895152;29;20363;-66
2023/08/14 13:40:15;;;;;;;5.93;2.58;;;;;;;;;;4900737;29;20721;-64
2023/08/14 13:42:40;;;;;;;5.40;2.45;;;;;;;;;;4898609;29;20043;-66
2023/08/14 13:45:06;;;;;;;7.88;2.60;;;;;;;;;;4896091;29;20116;-65
2023/08/14 13:47:32;;;;;;;7.05;2.53;;;;;;;;;;4900166;29;20036;-63
2023/08/14 13:49:57;;;;;;;8.38;2.70;;;;;;;;;;4897608;29;20111;-66
2023/08/14 13:52:23;;;;;;;6.63;2.60;;;;;;;;;;4900042;29;20039;-66
2023/08/14 13:54:48;;;;;;;4.25;2.53;;;;;;;;;;4898417;29;20036;-64
2023/08/14 13:57:14;;;;;;;5.28;2.42;;;;;;;;;;4895744;29;20067;-66
2023/08/14 13:59:39;;;;;;;6.78;2.80;;;;;;;;;;4880291;29;20032;-66
2023/08/14 14:02:04;;;;;;;5.10;2.60;;;;;;;;;;4895823;29;20281;-66
2023/08/14 14:04:30;;;;;;;7.38;2.67;;;;;;;;;;4897013;29;20032;-65
2023/08/14 14:06:55;;;;;;;5.70;2.63;;;;;;;;;;4898360;29;20461;-67
2023/08/14 14:09:21;;;;;;;7.47;2.80;;;;;;;;;;4894108;29;20075;-64
2023/08/14 14:11:46;;;;;;;8.05;2.90;;;;;;;;;;4881980;29;20040;-67
2023/08/14 14:14:11;;;;;;;7.22;2.72;;;;;;;;;;4895362;29;20068;-66
2023/08/14 14:16:59;;;;;;;5.65;2.90;;;;;;;;;;4895798;29;20036;-65
2023/08/14 14:19:27;;;;;;;6.15;2.60;;;;;;;;;;4891669;29;20056;-66
2023/08/14 14:21:54;;;;;;;6.68;2.75;;;;;;;;;;4895784;29;20529;-67
2023/08/14 14:24:20;;;;;;;7.38;2.70;;;;;;;;;;4906080;29;20036;-66
2023/08/14 14:26:48;;;;;;;6.78;2.92;;;;;;;;;;4896340;29;20025;-64
2023/08/14 14:29:13;;;;;;;5.30;2.40;;;;;;;;;;4895935;29;20028;-64
2023/08/14 14:31:39;;;;;;;5.18;2.92;;;;;;;;;;4897124;29;20035;-65